createdAt,value
2019-05-26T00:00:41.660Z,17.87
2019-05-26T00:03:08.663Z,20.00
2019-05-26T00:05:35.678Z,22.73
2019-05-26T00:08:02.799Z,22.27
2019-05-26T00:10:29.817Z,19.60
2019-05-26T00:12:56.777Z,22.00
2019-05-26T00:15:23.718Z,25.77
2019-05-26T00:17:50.967Z,26.80
2019-05-26T00:20:17.980Z,20.10
2019-05-26T00:22:46.030Z,22.40
2019-05-26T00:25:13.301Z,23.27
2019-05-26T00:27:40.274Z,26.17
2019-05-26T00:30:07.957Z,28.17
2019-05-26T00:32:35.087Z,28.10
2019-05-26T00:35:02.049Z,27.87
2019-05-26T00:37:28.994Z,29.07
2019-05-26T00:39:55.997Z,34.33
2019-05-26T00:42:22.957Z,38.97
2019-05-26T00:44:49.886Z,38.50
2019-05-26T00:47:17.006Z,32.13
2019-05-26T00:49:44.032Z,32.07
2019-05-26T00:52:11.196Z,32.40
2019-05-26T00:54:38.272Z,33.50
2019-05-26T00:57:05.423Z,33.60
2019-05-26T00:59:32.689Z,35.03
2019-05-26T01:01:59.788Z,29.83
2019-05-26T01:04:27.049Z,35.43
2019-05-26T01:06:54.000Z,32.53
2019-05-26T01:09:21.009Z,36.67
2019-05-26T01:11:48.117Z,39.33
2019-05-26T01:14:15.193Z,41.97
2019-05-26T01:16:42.193Z,34.27
2019-05-26T01:19:09.126Z,35.33
2019-05-26T01:21:36.085Z,35.53
2019-05-26T01:24:03.390Z,36.27
2019-05-26T01:26:30.375Z,36.40
2019-05-26T01:28:57.366Z,40.47
2019-05-26T01:31:24.338Z,38.17
2019-05-26T01:33:51.321Z,39.50
2019-05-26T01:36:18.598Z,38.70
2019-05-26T01:38:45.953Z,44.13
2019-05-26T01:41:12.940Z,43.83
2019-05-26T01:43:39.904Z,44.17
2019-05-26T01:46:06.870Z,42.67
2019-05-26T01:48:33.874Z,41.87
2019-05-26T01:51:00.826Z,46.43
2019-05-26T01:53:27.853Z,43.53
2019-05-26T01:55:54.868Z,47.83
2019-05-26T01:58:21.828Z,48.23
2019-05-26T02:00:48.776Z,50.97
2019-05-26T02:03:15.760Z,57.60
2019-05-26T02:05:42.713Z,57.20
2019-05-26T02:08:12.071Z,54.70
2019-05-26T02:10:38.551Z,60.87
2019-05-26T02:13:05.516Z,55.50
2019-05-26T02:15:32.513Z,61.53
2019-05-26T02:17:59.472Z,63.33
2019-05-26T02:20:26.472Z,55.07
2019-05-26T02:22:53.451Z,50.80
2019-05-26T02:25:22.305Z,49.03
2019-05-26T02:27:49.261Z,45.93
2019-05-26T02:30:16.865Z,47.07
2019-05-26T02:32:45.598Z,49.70
2019-05-26T02:35:13.093Z,48.33
2019-05-26T02:37:40.087Z,47.60
2019-05-26T02:40:08.919Z,46.80
2019-05-26T02:42:35.909Z,62.40
2019-05-26T02:45:07.171Z,57.40
2019-05-26T02:47:34.135Z,55.93
2019-05-26T02:50:01.091Z,63.87
2019-05-26T02:52:28.094Z,70.03
2019-05-26T02:54:55.140Z,70.97
2019-05-26T02:57:22.089Z,70.17
2019-05-26T02:59:49.164Z,67.70
2019-05-26T03:02:16.110Z,70.17
2019-05-26T03:04:43.191Z,68.63
2019-05-26T03:07:11.094Z,78.00
2019-05-26T03:09:40.048Z,73.50
2019-05-26T03:12:07.003Z,80.27
2019-05-26T03:14:35.308Z,79.83
2019-05-26T03:17:02.591Z,85.47
2019-05-26T03:19:32.670Z,76.37
2019-05-26T03:22:01.486Z,79.80
2019-05-26T03:24:28.428Z,77.30
2019-05-26T03:26:55.805Z,81.00
2019-05-26T03:29:22.907Z,82.60
2019-05-26T03:31:49.872Z,84.20
2019-05-26T03:34:16.828Z,83.57
2019-05-26T03:36:43.795Z,87.20
2019-05-26T03:39:10.778Z,89.77
2019-05-26T03:41:37.849Z,93.00
2019-05-26T03:44:04.807Z,89.47
2019-05-26T03:46:32.447Z,94.33
2019-05-26T03:48:59.422Z,94.40
2019-05-26T03:51:26.377Z,95.07
2019-05-26T03:53:53.417Z,101.50
2019-05-26T03:56:20.411Z,95.60
2019-05-26T03:58:47.369Z,100.30
2019-05-26T04:01:14.360Z,106.03
2019-05-26T04:03:42.523Z,102.50
2019-05-26T04:06:09.569Z,103.40
2019-05-26T04:08:36.849Z,97.73
2019-05-26T04:11:03.807Z,99.50
2019-05-26T04:13:30.764Z,101.87
2019-05-26T04:15:57.768Z,103.63
2019-05-26T04:18:24.731Z,102.50
2019-05-26T04:20:51.697Z,106.30
2019-05-26T04:23:18.677Z,106.37
2019-05-26T04:25:45.663Z,98.93
2019-05-26T04:28:12.617Z,95.77
2019-05-26T04:30:39.612Z,97.07
2019-05-26T04:33:06.587Z,98.13
2019-05-26T04:35:33.539Z,95.77
2019-05-26T04:38:00.534Z,93.47
2019-05-26T04:40:28.230Z,98.63
2019-05-26T04:42:55.359Z,98.57
2019-05-26T04:45:22.423Z,96.67
2019-05-26T04:47:49.393Z,92.40
2019-05-26T04:50:16.666Z,97.17
2019-05-26T04:53:04.104Z,94.00
2019-05-26T04:55:12.663Z,92.13
2019-05-26T04:57:39.650Z,90.40
2019-05-26T05:00:07.747Z,83.00
2019-05-26T05:02:34.893Z,87.10
2019-05-26T05:05:01.942Z,84.63
2019-05-26T05:07:29.903Z,80.67
2019-05-26T05:09:56.850Z,78.27
2019-05-26T05:12:23.835Z,78.83
2019-05-26T05:14:52.592Z,76.40
2019-05-26T05:17:19.606Z,73.03
2019-05-26T05:19:46.626Z,74.30
2019-05-26T05:22:13.570Z,76.60
2019-05-26T05:24:40.510Z,71.07
2019-05-26T05:27:07.498Z,70.27
2019-05-26T05:29:34.467Z,70.33
2019-05-26T05:32:01.493Z,70.60
2019-05-26T05:34:28.431Z,66.57
2019-05-26T05:36:55.385Z,63.00
2019-05-26T05:39:22.372Z,73.00
2019-05-26T05:41:49.308Z,61.57
2019-05-26T05:44:16.259Z,64.50
2019-05-26T05:46:43.232Z,58.70
2019-05-26T05:49:10.248Z,64.10
2019-05-26T05:51:37.356Z,59.60
2019-05-26T05:54:07.292Z,62.00
2019-05-26T05:56:34.272Z,61.77
2019-05-26T05:59:03.719Z,60.03
2019-05-26T06:01:30.714Z,65.80
2019-05-26T06:03:57.726Z,61.77
2019-05-26T06:06:24.681Z,57.57
2019-05-26T06:08:51.799Z,60.07
2019-05-26T06:11:20.581Z,54.80
2019-05-26T06:13:47.570Z,61.90
2019-05-26T06:16:14.772Z,54.20
2019-05-26T06:18:41.736Z,61.00
2019-05-26T06:21:08.686Z,54.80
2019-05-26T06:23:36.963Z,56.43
2019-05-26T06:26:04.539Z,55.37
2019-05-26T06:28:31.542Z,56.33
2019-05-26T06:30:58.525Z,58.37
2019-05-26T06:33:25.516Z,49.27
2019-05-26T06:35:52.623Z,48.47
2019-05-26T06:38:19.587Z,51.43
2019-05-26T06:40:46.576Z,44.37
2019-05-26T06:43:13.555Z,50.47
2019-05-26T06:45:40.529Z,45.93
2019-05-26T06:48:07.558Z,47.07
2019-05-26T06:50:34.557Z,45.30
2019-05-26T06:53:01.517Z,46.27
2019-05-26T06:55:29.654Z,45.50
2019-05-26T06:57:56.673Z,39.77
2019-05-26T07:00:24.925Z,39.10
2019-05-26T07:02:51.953Z,38.97
2019-05-26T07:05:19.012Z,40.67
2019-05-26T07:07:47.782Z,38.17
2019-05-26T07:10:15.077Z,34.90
2019-05-26T07:12:42.075Z,35.60
2019-05-26T07:15:09.660Z,32.73
2019-05-26T07:17:39.706Z,32.30
2019-05-26T07:20:07.143Z,33.33
2019-05-26T07:22:35.928Z,33.40
2019-05-26T07:25:03.510Z,33.47
2019-05-26T07:27:30.477Z,31.40
2019-05-26T07:29:57.455Z,30.00
2019-05-26T07:32:24.469Z,29.97
2019-05-26T07:34:51.830Z,32.57
2019-05-26T07:37:18.790Z,28.33
2019-05-26T07:39:45.737Z,29.00
2019-05-26T07:42:12.727Z,32.23
2019-05-26T07:44:39.914Z,31.00
2019-05-26T07:47:07.771Z,35.47
2019-05-26T07:49:34.827Z,26.47
2019-05-26T07:52:03.728Z,25.77
2019-05-26T07:54:30.683Z,25.73
2019-05-26T07:56:57.698Z,25.47
2019-05-26T07:59:24.650Z,25.80
2019-05-26T08:01:51.607Z,23.20
2019-05-26T08:04:18.740Z,25.33
2019-05-26T08:06:45.710Z,24.40
2019-05-26T08:09:12.693Z,24.67
2019-05-26T08:11:39.677Z,21.87
2019-05-26T08:14:06.899Z,23.27
2019-05-26T08:16:33.997Z,24.60
2019-05-26T08:19:01.147Z,24.73
2019-05-26T08:21:28.195Z,20.67
2019-05-26T08:23:56.243Z,19.57
2019-05-26T08:26:23.576Z,20.27
2019-05-26T08:28:52.446Z,19.47
2019-05-26T08:31:19.531Z,23.17
2019-05-26T08:33:46.573Z,29.93
2019-05-26T08:36:13.541Z,18.00
2019-05-26T08:38:40.533Z,20.60
2019-05-26T08:41:07.659Z,17.03
2019-05-26T08:43:34.638Z,19.17
2019-05-26T08:46:01.604Z,17.23
2019-05-26T08:48:28.604Z,17.73
2019-05-26T08:50:55.574Z,18.50
2019-05-26T08:53:22.644Z,17.10
2019-05-26T08:55:49.645Z,26.27
2019-05-26T08:58:16.602Z,32.50
2019-05-26T09:00:43.597Z,15.03
2019-05-26T09:03:10.575Z,17.80
2019-05-26T09:05:37.535Z,18.43
2019-05-26T09:08:07.952Z,21.47
2019-05-26T09:10:33.493Z,14.10
2019-05-26T09:13:01.615Z,15.60
2019-05-26T09:15:28.985Z,14.70
2019-05-26T09:17:55.982Z,15.03
2019-05-26T09:20:23.283Z,15.30
2019-05-26T09:22:50.239Z,23.63
2019-05-26T09:25:17.231Z,13.93
2019-05-26T09:27:44.340Z,13.97
2019-05-26T09:30:12.123Z,13.80
2019-05-26T09:32:39.063Z,12.97
2019-05-26T09:35:07.088Z,12.03
2019-05-26T09:37:34.069Z,12.40
2019-05-26T09:40:01.032Z,12.53
2019-05-26T09:42:28.014Z,12.73
2019-05-26T09:44:55.079Z,11.60
2019-05-26T09:47:22.159Z,10.87
2019-05-26T09:49:58.431Z,10.87
2019-05-26T09:52:26.495Z,13.57
2019-05-26T09:54:53.498Z,19.10
2019-05-26T09:57:20.497Z,10.33
2019-05-26T09:59:47.449Z,11.43
2019-05-26T10:02:31.062Z,9.57
2019-05-26T10:04:58.134Z,9.67
2019-05-26T10:07:25.103Z,45.13
2019-05-26T10:09:52.108Z,11.83
2019-05-26T10:12:19.110Z,9.40
2019-05-26T10:14:47.862Z,13.93
2019-05-26T10:17:15.097Z,11.27
2019-05-26T10:19:42.074Z,10.67
2019-05-26T10:22:10.894Z,9.87
2019-05-26T10:24:37.910Z,9.20
2019-05-26T10:27:05.323Z,10.33
2019-05-26T10:29:32.324Z,9.67
2019-05-26T10:31:59.506Z,9.10
2019-05-26T10:34:26.484Z,9.33
2019-05-26T10:36:53.449Z,7.90
2019-05-26T10:39:20.466Z,10.87
2019-05-26T10:41:48.639Z,12.37
2019-05-26T10:44:15.673Z,9.13
2019-05-26T10:46:43.758Z,12.07
2019-05-26T10:49:10.810Z,19.23
2019-05-26T10:51:38.607Z,11.90
2019-05-26T10:54:05.585Z,13.83
2019-05-26T10:56:32.556Z,14.47
2019-05-26T10:58:59.575Z,9.20
2019-05-26T11:01:26.670Z,10.17
2019-05-26T11:03:53.645Z,11.53
2019-05-26T11:06:20.791Z,9.00
2019-05-26T11:08:47.772Z,12.67
2019-05-26T11:11:14.728Z,12.63
2019-05-26T11:13:41.781Z,12.17
2019-05-26T11:16:08.851Z,16.10
2019-05-26T11:18:35.833Z,8.97
2019-05-26T11:21:02.830Z,8.53
2019-05-26T11:23:29.856Z,10.07
2019-05-26T11:25:56.810Z,11.07
2019-05-26T11:28:23.788Z,10.67
2019-05-26T11:30:51.012Z,10.60
2019-05-26T11:33:18.071Z,8.93
2019-05-26T11:35:45.100Z,10.97
2019-05-26T11:38:12.080Z,10.80
2019-05-26T11:40:39.079Z,9.20
2019-05-26T11:43:16.224Z,10.07
2019-05-26T11:45:35.081Z,9.13
2019-05-26T11:48:02.117Z,9.77
2019-05-26T11:50:31.081Z,9.13
2019-05-26T11:52:58.211Z,9.37
2019-05-26T11:55:27.783Z,15.60
2019-05-26T11:57:54.190Z,9.37
2019-05-26T12:00:21.427Z,9.37
2019-05-26T12:02:48.407Z,12.77
2019-05-26T12:05:17.697Z,11.80
2019-05-26T12:07:44.669Z,9.23
2019-05-26T12:10:14.465Z,8.77
2019-05-26T12:12:41.919Z,9.97
2019-05-26T12:15:10.923Z,10.33
2019-05-26T12:17:38.811Z,7.83
2019-05-26T12:20:06.288Z,9.60
2019-05-26T12:22:33.397Z,8.57
2019-05-26T12:25:00.465Z,121.03
2019-05-26T12:27:27.586Z,9.77
2019-05-26T12:29:54.613Z,6.97
2019-05-26T12:32:21.605Z,11.87
2019-05-26T12:34:48.612Z,8.73
2019-05-26T12:37:15.726Z,5.97
2019-05-26T12:40:01.224Z,5.93
2019-05-26T12:42:28.283Z,6.20
2019-05-26T12:44:55.240Z,8.87
2019-05-26T12:47:22.189Z,6.37
2019-05-26T12:49:49.226Z,5.43
2019-05-26T12:52:16.179Z,5.23
2019-05-26T12:54:43.170Z,15.37
2019-05-26T12:57:10.179Z,6.77
2019-05-26T12:59:37.263Z,8.63
2019-05-26T13:02:04.472Z,7.30
2019-05-26T13:04:34.891Z,7.87
2019-05-26T13:07:01.863Z,7.80
2019-05-26T13:09:28.944Z,7.73
2019-05-26T13:11:55.973Z,6.77
2019-05-26T13:14:22.919Z,8.03
2019-05-26T13:16:49.917Z,11.47
2019-05-26T13:19:17.080Z,10.10
2019-05-26T13:21:44.086Z,11.50
2019-05-26T13:24:11.056Z,9.23
2019-05-26T13:26:38.031Z,7.97
2019-05-26T13:29:05.027Z,8.83
2019-05-26T13:31:33.061Z,9.20
2019-05-26T13:34:00.150Z,11.57
2019-05-26T13:36:27.134Z,6.23
2019-05-26T13:38:54.138Z,6.80
2019-05-26T13:41:21.290Z,9.37
2019-05-26T13:43:48.261Z,7.53
2019-05-26T13:46:15.262Z,7.63
2019-05-26T13:48:42.250Z,6.87
2019-05-26T13:51:09.270Z,7.47
2019-05-26T13:53:36.296Z,8.90
2019-05-26T13:56:03.252Z,8.33
2019-05-26T13:58:30.238Z,11.40
2019-05-26T14:00:57.253Z,8.03
2019-05-26T14:03:24.486Z,9.80
2019-05-26T14:05:51.665Z,11.40
2019-05-26T14:08:18.656Z,11.10
2019-05-26T14:10:45.742Z,7.43
2019-05-26T14:13:12.917Z,11.93
2019-05-26T14:15:39.891Z,8.77
2019-05-26T14:18:07.228Z,11.00
2019-05-26T14:20:39.108Z,8.67
2019-05-26T14:23:07.565Z,7.27
2019-05-26T14:25:35.065Z,8.80
2019-05-26T14:28:02.072Z,7.93
2019-05-26T14:30:29.412Z,8.00
2019-05-26T14:32:57.479Z,9.37
2019-05-26T14:35:24.482Z,7.83
2019-05-26T14:37:51.719Z,8.47
2019-05-26T14:40:19.089Z,10.30
2019-05-26T14:42:46.063Z,9.10
2019-05-26T14:45:13.188Z,10.57
2019-05-26T14:47:40.150Z,7.93
2019-05-26T14:50:08.837Z,8.77
2019-05-26T14:52:37.252Z,10.17
2019-05-26T14:57:15.098Z,10.20
2019-05-26T14:59:42.129Z,9.90
2019-05-26T15:02:09.238Z,9.40
2019-05-26T15:04:36.242Z,9.70
2019-05-26T15:07:03.196Z,10.83
2019-05-26T15:09:30.341Z,10.80
2019-05-26T15:11:57.379Z,7.70
2019-05-26T15:14:24.384Z,11.13
2019-05-26T15:16:51.381Z,9.77
2019-05-26T15:19:18.513Z,7.57
2019-05-26T15:21:45.522Z,9.63
2019-05-26T15:24:12.533Z,9.17
2019-05-26T15:26:39.564Z,7.23
2019-05-26T15:29:06.579Z,13.87
2019-05-26T15:31:33.594Z,9.83
2019-05-26T15:34:00.721Z,9.43
2019-05-26T15:36:27.770Z,9.87
2019-05-26T15:38:55.835Z,20.67
2019-05-26T15:41:22.835Z,13.30
2019-05-26T15:43:49.945Z,11.33
2019-05-26T15:46:25.072Z,9.20
2019-05-26T15:48:47.508Z,12.37
2019-05-26T15:51:14.642Z,7.43
2019-05-26T15:53:41.647Z,12.80
2019-05-26T15:56:08.731Z,10.67
2019-05-26T15:58:35.766Z,6.37
2019-05-26T16:01:03.035Z,7.00
2019-05-26T16:03:30.036Z,8.60
2019-05-26T16:05:57.099Z,8.03
2019-05-26T16:08:24.240Z,13.33
2019-05-26T16:10:51.314Z,10.83
2019-05-26T16:13:18.342Z,9.87
2019-05-26T16:15:47.118Z,6.87
2019-05-26T16:18:14.117Z,7.70
2019-05-26T16:20:41.058Z,8.57
2019-05-26T16:23:09.047Z,9.63
2019-05-26T16:25:36.162Z,7.57
2019-05-26T16:28:03.445Z,7.37
2019-05-26T16:30:30.435Z,8.77
2019-05-26T16:32:57.430Z,7.70
2019-05-26T16:35:24.412Z,8.83
2019-05-26T16:37:51.403Z,14.10
2019-05-26T16:40:19.496Z,5.60
2019-05-26T16:42:46.465Z,8.60
2019-05-26T16:45:13.456Z,6.57
2019-05-26T16:47:40.476Z,6.73
2019-05-26T16:50:07.832Z,6.87
2019-05-26T16:52:34.888Z,8.27
2019-05-26T16:55:01.867Z,8.77
2019-05-26T16:57:28.872Z,8.17
2019-05-26T16:59:55.870Z,11.30
2019-05-26T17:02:24.749Z,4.77
2019-05-26T17:04:51.740Z,6.73
2019-05-26T17:07:18.877Z,7.43
2019-05-26T17:09:45.896Z,10.43
2019-05-26T17:12:12.874Z,10.97
2019-05-26T17:14:39.952Z,8.23
2019-05-26T17:17:14.565Z,7.17
2019-05-26T17:19:35.895Z,8.20
2019-05-26T17:22:03.105Z,7.67
2019-05-26T17:24:32.169Z,6.40
2019-05-26T17:26:59.655Z,7.90
2019-05-26T17:29:26.777Z,10.03
2019-05-26T17:31:53.757Z,6.97
2019-05-26T17:34:20.893Z,13.00
2019-05-26T17:36:47.871Z,8.13
2019-05-26T17:39:16.665Z,11.00
2019-05-26T17:41:43.671Z,7.93
2019-05-26T17:44:10.797Z,14.67
2019-05-26T17:46:37.832Z,10.37
2019-05-26T17:49:04.995Z,12.37
2019-05-26T17:51:32.110Z,8.50
2019-05-26T17:54:01.017Z,12.47
2019-05-26T17:56:28.021Z,9.77
2019-05-26T17:58:55.019Z,11.63
2019-05-26T18:01:22.015Z,8.10
2019-05-26T18:03:49.021Z,4.03
2019-05-26T18:06:16.061Z,5.70
2019-05-26T18:08:43.045Z,3.60
2019-05-26T18:11:10.099Z,7.37
2019-05-26T18:13:37.101Z,3.83
2019-05-26T18:16:04.127Z,6.77
2019-05-26T18:18:31.201Z,7.87
2019-05-26T18:20:59.401Z,6.47
2019-05-26T18:23:26.393Z,10.73
2019-05-26T18:25:53.494Z,4.33
2019-05-26T18:28:20.534Z,4.83
2019-05-26T18:30:47.509Z,12.77
2019-05-26T18:33:14.583Z,5.33
2019-05-26T18:35:41.616Z,4.00
2019-05-26T18:38:08.631Z,6.03
2019-05-26T18:40:41.635Z,7.73
2019-05-26T18:43:08.762Z,8.30
2019-05-26T18:45:35.746Z,7.67
2019-05-26T18:48:03.979Z,5.57
2019-05-26T18:50:31.109Z,6.83
2019-05-26T18:52:58.513Z,7.77
2019-05-26T18:55:25.804Z,4.27
2019-05-26T18:57:52.816Z,4.17
2019-05-26T19:00:20.060Z,5.00
2019-05-26T19:02:47.211Z,7.50
2019-05-26T19:05:14.956Z,5.40
2019-05-26T19:07:42.002Z,7.30
2019-05-26T19:10:09.642Z,4.00
2019-05-26T19:12:36.678Z,5.30
2019-05-26T19:15:04.303Z,5.80
2019-05-26T19:17:31.324Z,4.60
2019-05-26T19:20:12.885Z,6.83
2019-05-26T19:22:27.387Z,6.13
2019-05-26T19:24:54.448Z,5.00
2019-05-26T19:27:22.740Z,7.10
2019-05-26T19:29:51.530Z,9.27
2019-05-26T19:32:18.702Z,5.97
2019-05-26T19:34:45.745Z,6.93
2019-05-26T19:37:12.959Z,9.40
2019-05-26T19:39:40.000Z,11.27
2019-05-26T19:42:07.103Z,11.50
2019-05-26T19:44:34.227Z,7.23
2019-05-26T19:47:01.217Z,9.57
2019-05-26T19:49:28.226Z,11.00
2019-05-26T19:51:56.833Z,10.67
2019-05-26T19:54:23.892Z,7.30
2019-05-26T19:56:50.906Z,7.13
2019-05-26T19:59:18.236Z,10.67
2019-05-26T20:01:45.384Z,6.90
2019-05-26T20:04:12.543Z,8.60
2019-05-26T20:06:39.736Z,8.00
2019-05-26T20:09:08.292Z,7.07
2019-05-26T20:11:35.321Z,9.27
2019-05-26T20:14:02.705Z,7.70
2019-05-26T20:16:30.821Z,10.80
2019-05-26T20:18:58.094Z,10.10
2019-05-26T20:21:25.239Z,6.27
2019-05-26T20:24:10.999Z,7.40
2019-05-26T20:26:38.246Z,6.23
2019-05-26T20:29:05.255Z,6.60
2019-05-26T20:31:32.256Z,8.73
2019-05-26T20:34:01.438Z,8.27
2019-05-26T20:36:29.560Z,5.70
2019-05-26T20:38:57.708Z,5.43
2019-05-26T20:41:24.789Z,7.90
2019-05-26T20:43:52.704Z,7.40
2019-05-26T20:46:19.804Z,9.90
2019-05-26T20:48:46.796Z,6.57
2019-05-26T20:51:13.780Z,5.13
2019-05-26T20:53:41.009Z,8.77
2019-05-26T20:56:08.032Z,6.77
2019-05-26T20:58:35.218Z,7.83
2019-05-26T21:01:02.224Z,10.70
2019-05-26T21:03:29.371Z,7.70
2019-05-26T21:05:56.398Z,9.20
2019-05-26T21:08:23.409Z,5.43
2019-05-26T21:10:50.453Z,5.80
2019-05-26T21:13:18.737Z,8.67
2019-05-26T21:15:46.926Z,3.73
2019-05-26T21:18:13.967Z,5.50
2019-05-26T21:20:41.504Z,5.73
2019-05-26T21:23:08.549Z,5.27
2019-05-26T21:25:35.578Z,4.60
2019-05-26T21:28:02.567Z,6.93
2019-05-26T21:30:29.606Z,6.83
2019-05-26T21:32:57.224Z,6.43
2019-05-26T21:35:25.953Z,5.80
2019-05-26T21:37:52.949Z,6.77
2019-05-26T21:40:20.110Z,8.03
2019-05-26T21:42:47.124Z,4.53
2019-05-26T21:45:14.514Z,5.57
2019-05-26T21:47:41.520Z,7.30
2019-05-26T21:50:09.477Z,5.87
2019-05-26T21:52:36.687Z,6.70
2019-05-26T21:55:04.352Z,7.20
2019-05-26T21:57:31.356Z,5.17
2019-05-26T21:59:58.389Z,6.83
2019-05-26T22:02:25.375Z,7.83
2019-05-26T22:04:52.353Z,7.80
2019-05-26T22:07:19.472Z,4.97
2019-05-26T22:09:46.529Z,10.00
2019-05-26T22:12:13.608Z,6.33
2019-05-26T22:14:40.637Z,5.03
2019-05-26T22:17:07.705Z,7.97
2019-05-26T22:19:34.725Z,5.73
2019-05-26T22:22:01.930Z,8.63
2019-05-26T22:24:29.007Z,6.20
2019-05-26T22:26:56.020Z,6.83
2019-05-26T22:29:23.135Z,5.60
2019-05-26T22:31:50.132Z,7.27
2019-05-26T22:34:17.156Z,8.40
2019-05-26T22:36:47.670Z,7.90
2019-05-26T22:39:14.815Z,7.33
2019-05-26T22:41:41.966Z,8.47
2019-05-26T22:44:08.967Z,7.90
2019-05-26T22:46:35.969Z,7.73
2019-05-26T22:49:02.994Z,7.27
2019-05-26T22:51:30.007Z,9.17
2019-05-26T22:53:58.025Z,7.20
2019-05-26T22:56:25.057Z,10.67
2019-05-26T22:58:52.305Z,9.17
2019-05-26T23:01:19.359Z,9.00
2019-05-26T23:03:46.381Z,5.83
2019-05-26T23:06:13.537Z,8.80
2019-05-26T23:08:40.774Z,7.83
2019-05-26T23:11:07.771Z,10.13
2019-05-26T23:13:34.839Z,8.40
2019-05-26T23:16:01.845Z,6.30
2019-05-26T23:18:28.861Z,8.10
2019-05-26T23:20:55.878Z,8.30
2019-05-26T23:23:23.017Z,8.20
2019-05-26T23:25:50.049Z,9.07
2019-05-26T23:28:17.190Z,9.77
2019-05-26T23:30:44.665Z,10.63
2019-05-26T23:33:13.430Z,7.70
2019-05-26T23:35:40.545Z,8.07
2019-05-26T23:38:07.529Z,9.83
2019-05-26T23:40:34.525Z,11.57
2019-05-26T23:43:01.974Z,8.83
2019-05-26T23:45:29.053Z,10.37
2019-05-26T23:47:56.180Z,12.50
2019-05-26T23:50:23.259Z,17.47
2019-05-26T23:52:50.260Z,10.23
2019-05-26T23:55:17.305Z,10.00
2019-05-26T23:57:44.395Z,13.20
